Flight Track Log - Related Links

Times and Time Zones

All times are in EST time to prevent confusion due to time zone crossing. See the EJA829P flight status page for this flight to view local times or setup timezone preferences in your user account.

Time Position Orientation Groundspeed Altitude Reporting Facility
EST Latitude Longitude Course Direction KTS MPH feet Rate Location/Type
Thu 03:38:34 PM 32.2486 -81.1583 16° North 233 268 3,000  Level Jacksonville Center
Thu 03:39:34 PM 32.3108 -81.1375 16° North 260 299 4,100 1,550 Climbing Jacksonville Center
Thu 03:40:34 PM 32.3817 -81.1117 17° North 265 305 6,100 2,450 Climbing Jacksonville Center
Thu 03:41:34 PM 32.4500 -81.0856 18° North 270 311 9,000 2,850 Climbing Jacksonville Center
Thu 03:42:00 PM 32.6926 -81.1571 16° North  Level Estimated
Thu 03:42:34 PM 32.5269 -81.0569 17° North 280 322 11,800  Level Jacksonville Center
Thu 03:43:34 PM 32.5972 -81.0111 29° Northeast 285 328 14,700 1,600 Climbing Jacksonville Center
Thu 03:44:34 PM 32.6778 -80.9528 31° Northeast 304 350 15,000 150 Climbing Jacksonville Center
Thu 03:45:34 PM 32.7622 -80.8892 32° Northeast 334 384 15,000  Level Jacksonville Center
Thu 03:46:34 PM 32.8447 -80.8256 33° Northeast 347 399 15,000  Level Jacksonville Center
Thu 03:47:34 PM 32.9314 -80.7642 31° Northeast 352 405 15,000  Level Jacksonville Center
Thu 03:48:34 PM 33.0139 -80.7003 33° Northeast 352 405 15,000  Level Jacksonville Center
Thu 03:49:34 PM 33.0964 -80.6386 32° Northeast 352 405 15,000  Level Jacksonville Center
Thu 03:50:34 PM 33.1808 -80.5769 31° Northeast 352 405 15,000  Level Jacksonville Center
Thu 03:51:34 PM 33.2650 -80.5128 33° Northeast 352 405 15,000  Level Jacksonville Center
Thu 03:52:34 PM 33.3475 -80.4508 32° Northeast 352 405 15,000  Level Jacksonville Center
Thu 03:53:34 PM 33.4317 -80.3889 32° Northeast 352 405 15,000  Level Jacksonville Center
Thu 03:54:34 PM 33.5139 -80.3267 32° Northeast 352 405 15,000  Level Jacksonville Center
Thu 03:55:34 PM 33.6022 -80.2592 32° Northeast 352 405 15,000  Level Jacksonville Center
Thu 03:56:34 PM 33.6844 -80.1969 32° Northeast 347 399 15,000  Level Jacksonville Center
Thu 03:57:34 PM 33.7644 -80.1344 33° Northeast 347 399 15,000  Level Jacksonville Center
Thu 03:58:34 PM 33.8467 -80.0719 32° Northeast 347 399 15,000  Level Jacksonville Center
Thu 03:59:34 PM 33.9286 -80.0092 32° Northeast 342 394 15,000  Level Jacksonville Center
Thu 04:00:34 PM 34.0086 -79.9489 32° Northeast 342 394 15,000  Level Jacksonville Center
Thu 04:01:34 PM 34.0953 -79.9083 21° North 333 383 15,000  Level Jacksonville Center
Thu 04:02:34 PM 34.1761 -79.9683 328° Northwest 294 338 15,000  Level Jacksonville Center
Thu 04:03:34 PM 34.2544 -80.0261 329° Northwest 309 356 15,000  Level Jacksonville Center
Thu 04:04:34 PM 34.3372 -80.0811 331° Northwest 322 371 15,000  Level Jacksonville Center
Thu 04:05:34 PM 34.4133 -80.1342 330° Northwest 334 384 15,000  Level Jacksonville Center
Thu 04:06:34 PM 34.4939 -80.1919 329° Northwest 334 384 15,000 -857 Level Jacksonville Center
Thu 04:08:08 PM 34.6217 -80.2828 330° Northwest 325 374 12,800 -1,471 Descending Atlanta Center
Thu 04:09:09 PM 34.6922 -80.3378 327° Northwest 307 353 11,200 -885 Descending Atlanta Center
Thu 04:10:10 PM 34.7506 -80.4036 317° Northwest 285 328 11,000 -98 Descending Atlanta Center
Thu 04:11:11 PM 34.8047 -80.4719 314° West 286 329 11,000  Level Atlanta Center
Thu 04:12:11 PM 34.8608 -80.5406 315° West 287 330 11,000  Level Atlanta Center
Thu 04:13:12 PM 34.9194 -80.6164 313° West 290 334 11,000  Level Atlanta Center
Thu 04:14:13 PM 34.9797 -80.6875 316° Northwest 288 331 11,000 -344 Level Atlanta Center
Thu 04:15:14 PM 35.0339 -80.7589 313° West 288 331 10,300 -984 Descending Atlanta Center
Thu 04:16:15 PM 35.1019 -80.8044 331° Northwest 286 329 9,000 -639 Descending Atlanta Center
Thu 04:17:16 PM 35.1778 -80.8369 341° North 290 334 9,000 -639 Level Atlanta Center
Thu 04:18:17 PM 35.2658 -80.8489 354° North 295 339 7,700 -1,672 Descending Atlanta Center
Thu 04:19:18 PM 35.3425 -80.8308 11° North 283 326 5,600 -1,820 Descending Atlanta Center
Thu 04:20:19 PM 35.3956 -80.8617 335° Northwest 227 261 4,000 -1,279 Descending Atlanta Center
Thu 04:21:20 PM 35.3781 -80.9158 248° West 150 173 3,000 -689 Descending Atlanta Center
Thu 04:22:21 PM 35.3328 -80.9381 202° Southwest 164 189 2,600 -469 Descending Atlanta Center
Thu 04:23:28 PM 35.2892 -80.9447 187° South 144 166 2,000 -585 Descending Atlanta Center
Thu 04:24:24 PM 35.2578 -80.9433 178° South 120 138 1,400 -643 Descending Atlanta Center

Login

Don't have an account? Register now (free) for customized features, flight alerts, and more!